Hyattsville, Maryland
Current Conditions -  °F | °C
As of 8:30 AM on Thursday 30 Oct 2014 (Local Time) from KCGS Reporting Station
Overcast Overcast  
Wind Chill: 45°   Ceiling: 7500
Heat Index: 45°   Visibility: 10mi
Dew Point: 45°   Wind: 0mph
Humidity: 100%   Direction: NA
Pressure: 30.05"   Gusts: NA
Location:  38.95°N, 76.94°W
Report Text: KCGS 301230Z AUTO 00000KT 10SM OVC075 07/07 A3005 RMK AO1
Loading
Personal Weather Stations






























Interactive Weather Map
Tropical Storm Tracking
New forecast layout! Learn more

10-Day Weather Forecast

Advertisements
Track Severe Weather on mobile